Aviation Digital Data Service (ADDS)

Output produced by METARs form (1300 UTC 19 February 2020)
found at http://aviationweather.gov/metar/data/
 
KEGE 191124Z 1912/2012 12003KT P6SM SCT150 
     FM192200 VRB04KT P6SM BKN100 
     FM200200 VRB03KT P6SM BKN045 
     FM200900 00000KT P6SM SCT070